AirNav  
 
 1448 users online  

T23 Albany Municipal Airport
Albany, Texas, USA


FAA INFORMATION EFFECTIVE 09 NOVEMBER 2017

Location

FAA Identifier: T23
Lat/Long: 32-43-17.0000N / 099-16-03.3000W
32-43.283333N / 099-16.055000W
32.7213889 / -99.2675833
(estimated)
Elevation: 1414.8 ft. / 431.2 m (surveyed)
Variation: 05E (2015)
From city: 2 miles E of ALBANY, TX
Time zone: UTC -6 (UTC -5 during Daylight Saving Time)
Zip code: 76430

Airport Operations

Airport use: Open to the public
Activation date: 07/1985
Control tower: no
ARTCC: FORT WORTH CENTER
FSS: FORT WORTH FLIGHT SERVICE STATION
NOTAMs facility: FTW (NOTAM-D service available)
Attendance: IREG
Wind indicator: lighted
Segmented circle: yes
Lights: MIRL RY 17/35 PRESET LOW INTST; TO INCR INTST AND ACTVT PAPI RY 17 & 35 - 123.5.
Beacon: white-green (lighted land airport)
Operates sunset to sunrise.

Airport Communications

CTAF: 122.9
ABILENE APPROACH: 125.0
ABILENE DEPARTURE: 125.0
WX AWOS-3 at BKD (19 nm E): 120.175 (254-559-5525)

Nearby radio navigation aids

VOR radial/distance  VOR name  Freq  Var
ABIr054/33.4ABILENE VORTAC113.7010E

Airport Services

Fuel available: 100LL JET-A
100LL AND JET A AVBL 24 HRS SELF SERVE.
Parking: tiedowns

Runway Information

Runway 17/35

Dimensions: 5000 x 75 ft. / 1524 x 23 m
Surface: asphalt, in excellent condition
Weight bearing capacity: 
Single wheel: 30.0
Runway edge lights: medium intensity
RUNWAY 17  RUNWAY 35
Latitude: 32-43.694867N32-42.870675N
Longitude: 099-16.068915W099-16.040798W
Elevation: 1386.0 ft.1412.4 ft.
Gradient: 0.5% UP
Traffic pattern: leftright
Runway heading: 173 magnetic, 178 true353 magnetic, 358 true
Markings: nonprecision, in good conditionnonprecision, in good condition
Visual slope indicator: 2-light PAPI on left (3.00 degrees glide path)2-light PAPI on left (3.00 degrees glide path)
Touchdown point: yes, no lightsyes, no lights
Obstructions: 9 ft. road, 507 ft. from runway, 34:1 slope to clear39 ft. pline, marked, 999 ft. from runway, 20:1 slope to clear

Airport Ownership and Management from official FAA records

Ownership: Publicly-owned
Owner: THE CITY OF ALBANY
P O BOX 3248
ALBANY, TX 76430
Phone 325-762-3133
Manager: CHUCK SHEPPARD
P O BOX 3248
ALBANY, TX 76430
Phone (940) 445-1283
AIRPORT MGR.

Airport Operational Statistics

Aircraft based on the field: 8
Single engine airplanes: 7
Helicopters: 1
    
Aircraft operations: avg 54/week *
75% local general aviation
25% transient general aviation
* for 12-month period ending 15 January 2015

Instrument Procedures

NOTE: All procedures below are presented as PDF files. If you need a reader for these files, you should download the free Adobe Reader.

NOT FOR NAVIGATION. Please procure official charts for flight.
FAA instrument procedures published for use between 9 November 2017 at 0901Z and 7 December 2017 at 0900Z.

 
IAPs - Instrument Approach Procedures
RNAV (GPS) RWY 17   download (221KB)
RNAV (GPS) RWY 35   download (232KB)

Other nearby airports with instrument procedures:

KBKD - Stephens County Airport (19 nm E)
F56 - Arledge Field Airport (26 nm NW)
KABI - Abilene Regional Airport (28 nm SW)
KETN - Eastland Municipal Airport (30 nm SE)
KDYS - Dyess Air Force Base (35 nm SW)
 
Loc | Ops | Rwys | IFR | FBO | Links
Com | Nav | Svcs | Stats | Notes


 
Area around T23 (Albany Municipal Airport)
 
Road maps at: MapQuest Bing Google
 
Aerial photo
WARNING: Photo may not be current or correct
Aerial photo of T23 (Albany Municipal Airport)
Do you have a better or more recent aerial photo of Albany Municipal Airport that you would like to share? If so, please send us your photo.

 
Sectional chart

 
Airport distance calculator
Flying to Albany Municipal Airport? Find the distance to fly.

From to T23

Sunrise and sunset
Times for 20-Nov-2017
 Local
(UTC-6)
 Zulu
(UTC)
Morning civil twilight06:4612:46
Sunrise07:1313:13
Sunset17:3323:33
Evening civil twilight17:5923:59

Current date and time
Zulu (UTC)  20-Nov-2017 19:08:21
Local (UTC-6)  20-Nov-2017 13:08:21
 
METAR
KBKD 
19nm E 
201855Z AUTO 20015G22KT 7SM CLR 19/M03 A3001 RMK AO2 T01911026
KGZN 
25nm SE 
201840Z AUTO 19011G22KT 10SM CLR 17/M02 A3004 RMK AO2
KABI 
28nm SW 
201852Z 20016G24KT 10SM CLR 16/M01 A3001 RMK AO2 PK WND 21027/1823 SLP157 T01561006
KETN 
30nm SE 
201855Z AUTO 18011G21KT 10SM CLR 17/M01 A3003 RMK AO2 T01701010
KDYS 
34nm SW 
201856Z 18017G24KT 10SM FEW250 16/02 A3000 RMK AO2A SLP154 T01640020 $
TAF
KABI 
28nm SW 
201727Z 2018/2118 19016G23KT P6SM SCT250 FM210000 18010KT P6SM SCT250
KDYS 
34nm SW 
201700Z 2017/2123 20015G25KT 9999 FEW250 QNH2992INS BECMG 2020/2021 23012G18KT 9999 SCT200 510203 QNH2980INS BECMG 2110/2111 27009KT 9999 SCT200 510203 QNH2981INS BECMG 2115/2116 34015G25KT 9999 SCT250 QNH2985INS TX19/2021Z TN06/2111Z
NOTAMs
Click for the latest NOTAMs
NOTAMs are issued by the DoD/FAA and will open in a separate window not controlled by AirNav.

 

 
 

FBO, Fuel Providers, and Aircraft Ground Support

  
 Business Name 
 
 Contact 
 
 Services / Description 
 
Fuel Prices
 
Comments
  
Albany Municipal Airport 325-762-3133
325-762-0413
[email]
Aviation fuel, Courtesy transportation

More info about Albany Municipal Airport
Avfuel
100LL Jet A
SS $3.99 $3.49 
 Updated 13-Nov-2017
 
   write
SS=Self service
Update Fuel Prices
 

Would you like to see your business listed on this page?

 If your business provides an interesting product or service to pilots, flight crews, aircraft, or users of the Albany Municipal Airport, you should consider listing it here.  To start the listing process, click on the button below
 
Add a business
 

Other Pages about Albany Municipal Airport

Update a link
 
Copyright © AirNav, LLC. All rights reserved. Privacy Policy  Contact